.
WxDataArchive / Data Records for 2011-12-03
2011-12-02 December 2011 2011-12-04

Data Records for Saturday, 03 December 2011

Time	Temp	Chill	HIndex	Humid	Dewpt	 Wind 	HiWind	WindDir	Rain 	Barom 
-----	----	-----	------	-----	-----	------	------	-------	-----	----- 
00:00	31.5	31.5	31.5	90	28.9	1	4	135	0.00	30.486 
00:05	31.5	31.5	31.5	91	29.2	1	3	135	0.00	30.486 
00:10	31.5	31.5	31.5	91	29.2	1	2	135	0.00	30.486 
00:15	31.3	31.3	31.3	91	29.0	0	2	135	0.00	30.483 
00:20	31.3	31.3	31.3	91	29.0	1	2	135	0.00	30.483 
00:25	31.3	31.3	31.3	91	29.0	1	2	135	0.00	30.483 
00:30	31.3	31.3	31.3	91	29.0	1	3	135	0.00	30.477 
00:35	31.2	31.2	31.2	91	28.9	1	3	135	0.00	30.477 
00:40	31.0	31.0	31.0	91	28.7	0	2	135	0.00	30.477 
00:45	31.0	31.0	31.0	91	28.7	1	2	135	0.00	30.469 
00:50	30.9	30.9	30.9	92	28.9	0	3	135	0.00	30.469 
00:55	30.9	30.9	30.9	92	28.9	0	3	135	0.00	30.469 
01:00	30.9	30.9	30.9	92	28.9	1	3	135	0.00	30.461 
01:05	30.7	30.7	30.7	92	28.7	0	2	135	0.00	30.461 
01:10	30.7	30.7	30.7	92	28.7	1	3	90	0.00	30.461 
01:15	30.7	30.7	30.7	92	28.7	1	3	90	0.00	30.450 
01:20	30.7	30.7	30.7	92	28.7	1	4	90	0.00	30.450 
01:25	30.9	30.9	30.9	92	28.9	1	4	90	0.00	30.450 
01:30	31.0	31.0	31.0	92	29.0	1	6	112	0.00	30.457 
01:35	31.2	31.2	31.2	92	29.2	0	2	270	0.00	30.457 
01:40	31.0	31.0	31.0	92	29.0	0	2	270	0.00	30.457 
01:45	31.0	31.0	31.0	92	29.0	0	2	270	0.00	30.447 
01:50	31.0	31.0	31.0	92	29.0	0	2	270	0.00	30.447 
01:55	31.0	31.0	31.0	92	29.0	0	2	270	0.00	30.447 
02:00	31.0	31.0	31.0	92	29.0	0	2	270	0.00	30.445 
02:05	30.9	30.9	30.9	92	28.9	0	1	270	0.00	30.445 
02:10	30.9	30.9	30.9	92	28.9	0	0	---	0.00	30.445 
02:15	30.9	30.9	30.9	92	28.9	0	1	270	0.00	30.451 
02:20	30.9	30.9	30.9	92	28.9	0	2	270	0.00	30.451 
02:25	30.7	30.7	30.7	92	28.7	0	0	---	0.00	30.451 
02:30	30.7	30.7	30.7	92	28.7	0	1	270	0.00	30.448 
02:35	30.7	30.7	30.7	92	28.7	0	2	270	0.00	30.448 
02:40	30.7	30.7	30.7	92	28.7	0	2	270	0.00	30.448 
02:45	30.6	30.6	30.6	92	28.6	0	1	270	0.00	30.443 
02:50	30.6	30.6	30.6	92	28.6	0	2	270	0.00	30.443 
02:55	30.4	30.4	30.4	92	28.4	0	2	270	0.00	30.443 
03:00	30.4	30.4	30.4	93	28.6	0	2	270	0.00	30.440 
03:05	30.3	30.3	30.3	93	28.5	0	1	270	0.00	30.440 
03:10	30.3	30.3	30.3	93	28.5	0	2	270	0.00	30.440 
03:15	30.3	30.3	30.3	93	28.5	0	1	270	0.00	30.432 
03:20	30.3	30.3	30.3	93	28.5	0	1	270	0.00	30.432 
03:25	30.3	30.3	30.3	93	28.5	0	2	270	0.00	30.432 
03:30	30.3	30.3	30.3	93	28.5	0	1	270	0.00	30.433 
03:35	30.3	30.3	30.3	93	28.5	0	2	270	0.00	30.433 
03:40	30.1	30.1	30.1	93	28.3	0	2	270	0.00	30.433 
03:45	30.1	30.1	30.1	93	28.3	0	2	270	0.00	30.426 
03:50	30.1	30.1	30.1	93	28.3	0	1	270	0.00	30.426 
03:55	30.0	30.0	30.0	93	28.2	0	1	270	0.00	30.426 
04:00	30.0	30.0	30.0	93	28.2	0	1	270	0.00	30.425 
04:05	30.0	30.0	30.0	93	28.2	0	0	---	0.00	30.425 
04:10	30.0	30.0	30.0	93	28.2	0	1	270	0.00	30.425 
04:15	30.0	30.0	30.0	93	28.2	0	1	270	0.00	30.421 
04:20	30.0	30.0	30.0	93	28.2	0	1	270	0.00	30.421 
04:25	30.1	30.1	30.1	93	28.3	0	1	270	0.00	30.421 
04:30	30.1	30.1	30.1	94	28.6	0	1	270	0.00	30.425 
04:35	30.3	30.3	30.3	93	28.5	0	1	270	0.00	30.425 
04:40	30.4	30.4	30.4	94	28.9	0	2	270	0.00	30.425 
04:45	30.6	30.6	30.6	94	29.1	0	1	270	0.00	30.419 
04:50	30.7	30.7	30.7	94	29.2	0	0	---	0.00	30.419 
04:55	30.9	30.9	30.9	94	29.4	0	0	---	0.00	30.419 
05:00	31.2	31.2	31.2	94	29.7	0	1	270	0.00	30.416 
05:05	31.3	31.3	31.3	94	29.8	0	1	270	0.00	30.416 
05:10	31.5	31.5	31.5	94	30.0	1	2	270	0.00	30.416 
05:15	31.6	31.6	31.6	94	30.1	0	3	270	0.00	30.406 
05:20	31.8	31.8	31.8	94	30.3	0	1	270	0.00	30.406 
05:25	31.8	31.8	31.8	94	30.3	1	4	135	0.00	30.406 
05:30	31.8	31.8	31.8	93	30.0	0	1	135	0.00	30.403 
05:35	31.9	31.9	31.9	94	30.4	0	2	135	0.00	30.403 
05:40	32.1	32.1	32.1	93	30.3	0	3	135	0.00	30.403 
05:45	32.2	32.2	32.2	93	30.4	0	1	135	0.00	30.400 
05:50	32.2	32.2	32.2	93	30.4	0	2	135	0.00	30.400 
05:55	32.4	32.4	32.4	93	30.6	0	2	135	0.00	30.400 
06:00	32.5	32.5	32.5	93	30.7	0	1	135	0.00	30.398 
06:05	32.5	32.5	32.5	93	30.7	0	2	135	0.00	30.398 
06:10	32.7	32.7	32.7	93	30.9	0	1	135	0.00	30.398 
06:15	32.7	32.7	32.7	93	30.9	0	1	135	0.00	30.400 
06:20	32.7	32.7	32.7	93	30.9	0	1	135	0.00	30.400 
06:25	32.9	32.9	32.9	93	31.1	0	1	135	0.00	30.400 
06:30	33.1	33.1	33.1	93	31.3	0	1	135	0.00	30.406 
06:35	33.4	33.4	33.4	93	31.6	0	2	135	0.00	30.406 
06:40	33.5	33.5	33.5	92	31.4	0	2	180	0.00	30.406 
06:45	33.7	33.7	33.7	92	31.6	1	3	180	0.00	30.399 
06:50	33.8	33.8	33.8	92	31.7	0	2	112	0.00	30.399 
06:55	34.0	34.0	34.0	92	31.9	0	2	112	0.00	30.399 
07:00	34.1	34.1	34.1	92	32.0	0	1	112	0.00	30.399 
07:05	34.1	34.1	34.1	92	32.0	0	1	112	0.00	30.399 
07:10	34.3	34.3	34.3	91	32.0	0	2	112	0.00	30.399 
07:15	34.4	34.4	34.4	91	32.0	0	2	112	0.00	30.398 
07:20	34.4	34.4	34.4	91	32.0	0	2	112	0.00	30.398 
07:25	34.7	34.7	34.7	91	32.3	1	3	112	0.00	30.398 
07:30	34.9	34.9	34.9	91	32.5	0	2	112	0.00	30.398 
07:35	35.0	35.0	35.0	90	32.4	1	3	112	0.00	30.398 
07:40	35.3	35.3	35.3	90	32.7	0	3	112	0.00	30.398 
07:45	35.3	35.3	35.3	89	32.4	0	2	135	0.00	30.400 
07:50	35.5	35.5	35.5	89	32.6	0	2	135	0.00	30.400 
07:55	35.6	35.6	35.6	89	32.7	0	2	135	0.01	30.400 
08:00	35.8	35.8	35.8	88	32.6	0	2	135	0.00	30.403 
08:05	35.9	35.9	35.9	88	32.7	0	2	135	0.00	30.403 
08:10	36.2	36.2	36.2	87	32.7	1	3	135	0.00	30.403 
08:15	36.5	36.5	36.5	87	33.0	1	3	112	0.00	30.396 
08:20	36.6	36.6	36.6	86	32.8	1	3	112	0.00	30.396 
08:25	36.8	36.8	36.8	85	32.7	0	3	112	0.00	30.396 
08:30	36.9	36.9	36.9	85	32.8	0	1	112	0.00	30.399 
08:35	37.0	37.0	37.0	85	32.9	0	2	112	0.00	30.399 
08:40	37.2	37.2	37.2	85	33.1	0	2	112	0.00	30.399 
08:45	37.3	37.3	37.3	84	32.9	0	3	112	0.00	30.397 
08:50	37.5	37.5	37.5	84	33.1	0	2	112	0.00	30.397 
08:55	37.8	37.8	37.8	84	33.4	0	2	112	0.00	30.397 
09:00	37.9	37.9	37.9	84	33.5	0	1	112	0.00	30.408 
09:05	38.0	38.0	38.0	83	33.3	0	3	112	0.00	30.408 
09:10	38.2	38.2	38.2	82	33.2	1	4	112	0.00	30.408 
09:15	38.3	38.3	38.3	81	33.0	1	5	90	0.00	30.407 
09:20	38.6	38.6	38.6	80	33.0	0	3	112	0.00	30.407 
09:25	38.8	38.8	38.8	80	33.2	0	4	112	0.00	30.407 
09:30	38.9	38.9	38.9	79	33.0	1	4	112	0.00	30.414 
09:35	39.1	39.1	39.1	79	33.1	0	3	112	0.00	30.414 
09:40	39.2	39.2	39.2	78	32.9	0	2	112	0.00	30.414 
09:45	39.3	39.3	39.3	78	33.0	0	2	112	0.00	30.410 
09:50	39.3	39.3	39.3	78	33.0	0	2	112	0.00	30.410 
09:55	39.5	39.5	39.5	78	33.2	0	1	112	0.00	30.410 
10:00	39.6	39.6	39.6	77	33.0	0	3	112	0.00	30.410 
10:05	39.6	39.6	39.6	77	33.0	1	3	90	0.00	30.410 
10:10	39.8	39.8	39.8	77	33.2	1	3	90	0.00	30.410 
10:15	39.8	39.8	39.8	77	33.2	1	3	90	0.00	30.415 
10:20	39.9	39.9	39.9	77	33.3	0	2	90	0.00	30.415 
10:25	39.9	39.9	39.9	77	33.3	1	4	112	0.00	30.415 
10:30	39.9	39.9	39.9	76	33.0	1	2	112	0.00	30.414 
10:35	40.1	40.1	40.1	76	33.2	0	2	112	0.00	30.414 
10:40	40.2	40.2	40.2	77	33.6	0	2	112	0.00	30.414 
10:45	40.3	40.3	40.3	77	33.7	0	2	112	0.00	30.416 
10:50	40.3	40.3	40.3	77	33.7	0	1	112	0.00	30.416 
10:55	40.5	40.5	40.5	77	33.9	0	3	112	0.00	30.416 
11:00	40.5	40.5	40.5	77	33.9	1	3	112	0.00	30.415 
11:05	40.6	40.6	40.6	77	34.0	1	4	112	0.00	30.415 
11:10	40.8	40.8	40.8	77	34.2	0	3	112	0.00	30.415 
11:15	40.9	40.9	40.9	77	34.3	0	3	112	0.00	30.410 
11:20	40.9	40.9	40.9	78	34.6	0	2	112	0.00	30.410 
11:25	41.1	41.1	41.1	79	35.1	0	1	112	0.01	30.410 
11:30	40.9	40.9	40.9	79	34.9	0	2	112	0.00	30.410 
11:35	40.9	40.9	40.9	80	35.2	0	4	112	0.00	30.410 
11:40	40.8	40.8	40.8	80	35.1	0	2	112	0.00	30.410 
11:45	40.8	40.8	40.8	81	35.4	0	1	112	0.00	30.407 
11:50	40.9	40.9	40.9	81	35.5	0	1	112	0.00	30.407 
11:55	40.9	40.9	40.9	82	35.8	0	2	112	0.00	30.407 
12:00	41.1	41.1	41.1	82	36.0	0	2	112	0.00	30.392 
12:05	41.1	41.1	41.1	82	36.0	0	2	112	0.00	30.392 
12:10	41.2	41.2	41.2	82	36.1	0	2	112	0.00	30.392 
12:15	41.2	41.2	41.2	81	35.8	1	4	112	0.00	30.379 
12:20	41.2	41.2	41.2	81	35.8	0	2	68	0.00	30.379 
12:25	41.3	41.3	41.3	81	35.9	0	2	68	0.00	30.379 
12:30	41.3	41.3	41.3	81	35.9	0	3	158	0.00	30.375 
12:35	41.5	41.5	41.5	81	36.1	0	2	135	0.00	30.375 
12:40	41.5	41.5	41.5	81	36.1	0	2	135	0.00	30.375 
12:45	41.6	41.6	41.6	81	36.2	0	2	135	0.00	30.364 
12:50	41.6	41.6	41.6	80	35.9	0	3	158	0.00	30.364 
12:55	41.8	41.8	41.8	80	36.1	0	2	158	0.00	30.364 
13:00	41.8	41.8	41.8	81	36.4	0	3	135	0.00	30.355 
13:05	41.9	41.9	41.9	81	36.5	1	3	135	0.00	30.355 
13:10	41.9	41.9	41.9	80	36.2	1	2	135	0.00	30.355 
13:15	42.1	42.1	42.1	80	36.4	0	1	68	0.00	30.348 
13:20	42.2	42.2	42.2	80	36.5	0	3	68	0.00	30.348 
13:25	42.2	42.2	42.2	80	36.5	0	1	90	0.00	30.348 
13:30	42.3	42.3	42.3	81	36.9	0	1	90	0.00	30.346 
13:35	42.5	42.5	42.5	81	37.1	0	1	90	0.00	30.346 
13:40	42.8	42.8	42.8	81	37.4	0	1	90	0.00	30.346 
13:45	42.8	42.8	42.8	81	37.4	0	1	90	0.00	30.336 
13:50	42.9	42.9	42.9	80	37.2	0	1	90	0.00	30.336 
13:55	43.1	43.1	43.1	80	37.4	0	3	90	0.00	30.336 
14:00	43.2	43.2	43.2	79	37.1	0	2	90	0.00	30.329 
14:05	43.3	43.3	43.3	79	37.2	0	2	90	0.00	30.329 
14:10	43.3	43.3	43.3	79	37.2	0	2	90	0.00	30.329 
14:15	43.5	43.5	43.5	79	37.4	0	2	90	0.00	30.324 
14:20	43.6	43.6	43.6	79	37.5	0	2	90	0.00	30.324 
14:25	43.8	43.8	43.8	79	37.7	0	2	90	0.00	30.324 
14:30	43.9	43.9	43.9	78	37.5	1	2	90	0.00	30.314 
14:35	44.2	44.2	44.2	78	37.8	0	2	90	0.00	30.314 
14:40	44.3	44.3	44.3	77	37.6	0	2	90	0.00	30.314 
14:45	44.5	44.5	44.5	77	37.7	0	2	90	0.00	30.313 
14:50	44.6	44.6	44.6	77	37.8	0	2	90	0.00	30.313 
14:55	44.8	44.8	44.8	77	38.0	0	3	90	0.00	30.313 
15:00	44.8	44.8	44.8	76	37.7	0	2	90	0.00	30.309 
15:05	44.9	44.9	44.9	77	38.1	0	2	90	0.00	30.309 
15:10	44.9	44.9	44.9	77	38.1	0	2	90	0.00	30.309 
15:15	45.1	45.1	45.1	77	38.3	1	2	90	0.00	30.291 
15:20	45.2	45.2	45.2	77	38.4	0	2	90	0.00	30.291 
15:25	45.4	45.4	45.4	77	38.6	0	2	90	0.00	30.291 
15:30	45.5	45.5	45.5	77	38.7	0	2	90	0.00	30.281 
15:35	45.5	45.5	45.5	77	38.7	1	3	90	0.00	30.281 
15:40	45.5	45.5	45.5	77	38.7	1	4	90	0.00	30.281 
15:45	45.4	45.4	45.4	78	38.9	1	3	90	0.00	30.269 
15:50	45.4	45.4	45.4	78	38.9	1	2	90	0.00	30.269 
15:55	45.4	45.4	45.4	78	38.9	0	3	90	0.00	30.269 
16:00	45.4	45.4	45.4	78	38.9	0	1	90	0.00	30.285 
16:05	45.5	45.5	45.5	79	39.4	0	0	---	0.00	30.285 
16:10	45.7	45.7	45.7	79	39.6	0	0	---	0.00	30.285 
16:15	45.8	45.8	45.8	79	39.7	0	0	---	0.00	30.291 
16:20	46.0	46.0	46.0	79	39.9	0	0	---	0.00	30.291 
16:25	46.0	46.0	46.0	79	39.9	0	1	90	0.00	30.291 
16:30	46.0	46.0	46.0	79	39.9	1	3	90	0.00	30.275 
16:35	45.8	45.8	45.8	79	39.7	0	2	90	0.00	30.275 
16:40	45.7	45.7	45.7	79	39.6	0	2	90	0.00	30.275 
16:45	45.7	45.7	45.7	79	39.6	1	3	90	0.00	30.264 
16:50	45.5	45.5	45.5	80	39.7	0	2	90	0.00	30.264 
16:55	45.5	45.5	45.5	80	39.7	1	3	90	0.00	30.264 
17:00	45.5	45.5	45.5	80	39.7	0	1	90	0.00	30.265 
17:05	45.4	45.4	45.4	80	39.6	0	0	---	0.00	30.265 
17:10	45.4	45.4	45.4	80	39.6	0	0	---	0.00	30.265 
17:15	45.2	45.2	45.2	81	39.7	0	0	---	0.00	30.269 
17:20	45.1	45.1	45.1	81	39.6	0	0	---	0.00	30.269 
17:25	44.9	44.9	44.9	81	39.4	0	0	---	0.00	30.269 
17:30	44.8	44.8	44.8	82	39.6	0	0	---	0.00	30.263 
17:35	44.6	44.6	44.6	82	39.4	0	0	---	0.00	30.263 
17:40	44.5	44.5	44.5	83	39.7	0	1	90	0.00	30.263 
17:45	44.2	44.2	44.2	83	39.4	0	1	90	0.00	30.263 
17:50	44.1	44.1	44.1	84	39.6	0	1	90	0.00	30.263 
17:55	43.9	43.9	43.9	84	39.4	0	0	---	0.00	30.263 
18:00	43.8	43.8	43.8	84	39.3	0	0	---	0.00	30.264 
18:05	43.5	43.5	43.5	84	39.0	0	0	---	0.00	30.264 
18:10	43.2	43.2	43.2	84	38.7	0	1	90	0.00	30.264 
18:15	43.1	43.1	43.1	85	38.9	0	0	---	0.00	30.260 
18:20	42.8	42.8	42.8	85	38.6	0	1	90	0.00	30.260 
18:25	42.8	42.8	42.8	86	38.9	0	1	90	0.00	30.260 
18:30	42.9	42.9	42.9	86	39.0	0	2	90	0.00	30.251 
18:35	43.1	43.1	43.1	85	38.9	0	1	90	0.00	30.251 
18:40	43.3	43.3	43.3	85	39.1	1	3	90	0.00	30.251 
18:45	43.6	43.6	43.6	83	38.8	1	3	135	0.00	30.237 
18:50	43.9	43.9	43.9	82	38.8	1	3	135	0.00	30.237 
18:55	44.2	44.2	44.2	81	38.7	1	2	135	0.00	30.237 
19:00	44.3	44.3	44.3	80	38.5	1	3	90	0.00	30.229 
19:05	44.6	44.6	44.6	79	38.5	1	4	112	0.00	30.229 
19:10	44.8	44.8	44.8	78	38.4	1	3	135	0.00	30.229 
19:15	45.1	45.1	45.1	77	38.3	1	4	90	0.00	30.219 
19:20	45.1	45.1	45.1	76	38.0	1	3	90	0.00	30.219 
19:25	44.9	44.9	44.9	75	37.5	1	3	112	0.00	30.219 
19:30	44.8	44.8	44.8	76	37.7	1	3	112	0.00	30.207 
19:35	44.6	44.6	44.6	75	37.2	1	2	112	0.00	30.207 
19:40	44.8	44.8	44.8	75	37.4	1	4	90	0.00	30.207 
19:45	44.9	44.9	44.9	74	37.1	1	4	68	0.00	30.199 
19:50	45.1	45.1	45.1	73	37.0	1	4	90	0.00	30.199 
19:55	45.2	45.2	45.2	72	36.7	2	5	135	0.00	30.199 
20:00	45.4	45.4	45.4	71	36.6	1	4	112	0.00	30.196 
20:05	45.4	45.4	45.4	71	36.6	1	3	90	0.00	30.196 
20:10	45.5	45.5	45.5	71	36.7	1	3	90	0.00	30.196 
20:15	45.5	45.5	45.5	71	36.7	1	2	90	0.00	30.192 
20:20	45.5	45.5	45.5	71	36.7	1	4	112	0.00	30.192 
20:25	45.5	45.5	45.5	71	36.7	1	2	68	0.00	30.192 
20:30	45.5	45.5	45.5	70	36.3	1	3	90	0.00	30.194 
20:35	45.5	45.5	45.5	70	36.3	2	6	90	0.00	30.194 
20:40	45.5	45.5	45.5	70	36.3	2	6	90	0.00	30.194 
20:45	45.5	45.5	45.5	70	36.3	2	5	112	0.00	30.192 
20:50	45.5	45.5	45.5	70	36.3	2	5	112	0.00	30.192 
20:55	45.4	45.4	45.4	70	36.2	1	3	112	0.00	30.192 
21:00	45.4	45.4	45.4	70	36.2	1	3	90	0.00	30.199 
21:05	45.2	45.2	45.2	70	36.0	2	5	90	0.00	30.199 
21:10	45.4	45.4	45.4	69	35.8	2	4	90	0.00	30.199 
21:15	45.4	45.4	45.4	69	35.8	2	6	112	0.00	30.194 
21:20	45.4	45.4	45.4	69	35.8	1	4	112	0.00	30.194 
21:25	45.2	45.2	45.2	69	35.6	1	5	68	0.00	30.194 
21:30	45.1	45.1	45.1	69	35.5	1	4	112	0.00	30.190 
21:35	45.1	45.1	45.1	69	35.5	1	4	90	0.00	30.190 
21:40	45.1	45.1	45.1	69	35.5	2	5	90	0.00	30.190 
21:45	45.1	45.1	45.1	69	35.5	1	5	90	0.00	30.182 
21:50	44.9	44.9	44.9	70	35.7	1	3	112	0.00	30.182 
21:55	44.8	44.8	44.8	70	35.6	2	5	68	0.00	30.182 
22:00	44.8	44.8	44.8	70	35.6	1	4	135	0.00	30.178 
22:05	44.6	44.6	44.6	70	35.4	1	4	112	0.00	30.178 
22:10	44.6	44.6	44.6	70	35.4	2	5	68	0.00	30.178 
22:15	44.5	44.5	44.5	70	35.3	2	4	90	0.00	30.165 
22:20	44.6	44.6	44.6	70	35.4	2	4	112	0.00	30.165 
22:25	44.6	44.6	44.6	70	35.4	2	4	90	0.00	30.165 
22:30	44.8	44.8	44.8	70	35.6	1	4	90	0.00	30.160 
22:35	44.8	44.8	44.8	70	35.6	1	5	90	0.00	30.160 
22:40	44.9	44.9	44.9	69	35.4	2	4	90	0.00	30.160 
22:45	45.1	45.1	45.1	69	35.5	2	5	90	0.00	30.146 
22:50	45.2	45.2	45.2	69	35.6	2	5	90	0.00	30.146 
22:55	45.4	45.4	45.4	68	35.5	1	6	90	0.00	30.146 
23:00	45.4	45.4	45.4	68	35.5	1	4	68	0.00	30.145 
23:05	45.5	45.5	45.5	68	35.6	1	4	112	0.00	30.145 
23:10	45.7	45.7	45.7	67	35.4	2	5	112	0.00	30.145 
23:15	45.8	45.8	45.8	67	35.5	2	6	90	0.00	30.141 
23:20	46.0	46.0	46.0	67	35.7	2	4	90	0.00	30.141 
23:25	46.1	46.1	46.1	66	35.4	2	5	68	0.00	30.141 
23:30	46.2	46.2	46.2	66	35.5	1	4	90	0.00	30.123 
23:35	46.1	46.1	46.1	66	35.4	1	5	90	0.00	30.123 
23:40	46.2	46.2	46.2	66	35.5	1	4	135	0.00	30.123 
23:45	46.2	46.2	46.2	66	35.5	1	6	112	0.00	30.113 
23:50	46.2	46.2	46.2	66	35.5	2	6	112	0.00	30.113 
23:55	46.2	46.2	46.2	66	35.5	2	4	112	0.00	30.113 

CoCoRaHS
IN-AL-39
A2 Web Hosting
Creative Commons License
GoDaddy
search engine by freefind advanced

loaded 2018-11-17 14:06:53 • last modified 2010-11-18 10:43:29
Privacy PolicyDisclaimer
• wx.awcolley.com is powered by PmWiki v.2002016 •
• all content (unless otherwise noted) © 2018 A W Colley